Time;durP1;ratioP1;P1;durP2;ratioP2;P2;SDS_P1;SDS_P2;PMS_P1;PMS_P2;Temp;Humidity;BMP_temperature;BMP_pressure;BME280_temperature;BME280_humidity;BME280_pressure;Samples;Min_cycle;Max_cycle;Signal;HPM_P1;HPM_P2
2021/12/26 00:00:31;;;;;;;29.35;14.10;;;5.00;99.90;;;;;;5006785;28;20417;-55
2021/12/26 00:02:58;;;;;;;26.58;13.50;;;5.00;99.90;;;;;;5010884;28;20897;-55
2021/12/26 00:05:24;;;;;;;32.95;14.10;;;4.90;99.90;;;;;;5010313;28;20392;-55
2021/12/26 00:07:50;;;;;;;33.90;16.10;;;4.90;99.90;;;;;;5010909;28;20464;-55
2021/12/26 00:10:18;;;;;;;41.30;16.20;;;4.80;99.90;;;;;;5008072;28;20509;-55
2021/12/26 00:12:44;;;;;;;39.50;16.42;;;4.80;99.90;;;;;;5010820;28;20401;-55
2021/12/26 00:15:10;;;;;;;43.22;17.45;;;4.80;99.90;;;;;;5010748;28;20901;-55
2021/12/26 00:17:36;;;;;;;41.38;16.20;;;4.80;99.90;;;;;;5009208;28;20393;-55
2021/12/26 00:20:06;;;;;;;38.42;16.08;;;4.80;99.90;;;;;;5011230;28;20385;-55
2021/12/26 00:22:32;;;;;;;50.33;17.40;;;4.90;99.90;;;;;;5010253;28;20377;-55
2021/12/26 00:24:57;;;;;;;45.65;17.45;;;4.90;99.90;;;;;;5009447;28;20490;-55
2021/12/26 00:27:23;;;;;;;35.90;16.48;;;4.80;99.90;;;;;;5010005;28;20873;-55
2021/12/26 00:29:49;;;;;;;32.10;15.13;;;4.70;99.90;;;;;;5005874;28;20422;-55
2021/12/26 00:32:15;;;;;;;40.57;16.17;;;4.80;99.90;;;;;;5003874;28;20505;-55
2021/12/26 00:34:41;;;;;;;40.63;16.43;;;4.70;99.90;;;;;;4997218;28;20476;-55
2021/12/26 00:37:07;;;;;;;44.47;17.90;;;4.80;99.90;;;;;;5010838;28;20377;-55
2021/12/26 00:39:34;;;;;;;53.20;18.13;;;5.40;99.90;;;;;;5010205;28;20751;-55
2021/12/26 00:42:00;;;;;;;51.20;17.42;;;5.00;99.90;;;;;;5010914;28;20385;-55
2021/12/26 00:44:26;;;;;;;50.13;17.75;;;4.90;99.90;;;;;;5009909;28;20400;-55
2021/12/26 00:46:53;;;;;;;44.93;16.33;;;4.60;99.90;;;;;;5011082;28;20395;-55
2021/12/26 00:49:20;;;;;;;40.42;15.35;;;4.60;99.90;;;;;;5005536;28;20402;-55
2021/12/26 00:51:47;;;;;;;42.40;16.52;;;4.50;99.90;;;;;;5006931;28;20838;-55
2021/12/26 00:54:13;;;;;;;33.78;15.32;;;4.50;99.90;;;;;;4998547;28;20768;-55
2021/12/26 00:56:38;;;;;;;30.40;14.43;;;3.60;99.90;;;;;;4996490;28;20406;-55
2021/12/26 00:59:04;;;;;;;33.58;15.55;;;4.40;99.90;;;;;;5006617;28;20388;-55
2021/12/26 01:01:30;;;;;;;33.90;15.47;;;4.40;99.90;;;;;;5009631;28;20393;-55
2021/12/26 01:03:55;;;;;;;32.93;15.10;;;5.50;99.90;;;;;;5010636;28;20476;-55
2021/12/26 01:06:23;;;;;;;33.08;15.38;;;4.60;99.90;;;;;;5009769;28;20860;-55
2021/12/26 01:08:50;;;;;;;31.85;15.38;;;4.70;99.90;;;;;;5010147;28;20751;-55
2021/12/26 01:11:41;;;;;;;31.00;15.65;;;4.70;99.90;;;;;;5009606;28;20403;-55
2021/12/26 01:14:11;;;;;;;39.97;18.45;;;5.40;99.90;;;;;;5010488;28;20491;-56
2021/12/26 01:16:39;;;;;;;32.03;14.75;;;4.80;99.90;;;;;;5009428;28;20373;-55
2021/12/26 01:19:09;;;;;;;34.45;14.88;;;4.80;99.90;;;;;;5010088;28;20420;-55
2021/12/26 01:21:35;;;;;;;33.28;16.10;;;4.90;99.90;;;;;;5009533;28;20452;-55
2021/12/26 01:24:08;;;;;;;30.38;14.73;;;4.90;99.90;;;;;;5009890;28;20399;-55
2021/12/26 01:26:34;;;;;;;30.13;13.90;;;4.90;99.90;;;;;;5007679;28;20393;-55
2021/12/26 01:29:00;;;;;;;39.67;16.33;;;4.90;99.90;;;;;;5008833;28;20405;-55
2021/12/26 01:31:26;;;;;;;30.30;15.05;;;4.80;99.90;;;;;;5001535;28;20673;-55
2021/12/26 01:34:06;;;;;;;30.58;14.10;;;4.80;99.90;;;;;;4990251;28;20415;-55
2021/12/26 01:36:34;;;;;;;27.33;14.10;;;4.90;99.90;;;;;;5002874;28;20425;-55
2021/12/26 01:39:01;;;;;;;28.20;14.43;;;4.90;99.90;;;;;;5009449;28;20385;-55
2021/12/26 01:41:28;;;;;;;33.80;15.57;;;6.00;99.90;;;;;;5007552;28;20454;-55
2021/12/26 01:43:58;;;;;;;30.02;14.35;;;4.90;99.90;;;;;;5008678;28;20381;-55
2021/12/26 01:46:26;;;;;;;32.92;15.43;;;4.90;99.90;;;;;;5003394;28;20731;-55
2021/12/26 01:49:12;;;;;;;30.60;14.00;;;4.80;99.90;;;;;;5009858;28;20452;-55
2021/12/26 01:51:40;;;;;;;40.00;16.00;;;4.70;99.90;;;;;;5009048;28;20961;-55
2021/12/26 01:54:09;;;;;;;34.63;17.13;;;4.70;99.90;;;;;;5009495;28;20428;-55
2021/12/26 01:56:35;;;;;;;32.65;15.30;;;4.70;99.90;;;;;;5008751;28;20385;-55
2021/12/26 01:59:02;;;;;;;36.40;16.20;;;4.80;99.90;;;;;;5009832;28;20698;-55
2021/12/26 02:01:28;;;;;;;32.28;15.85;;;4.90;99.90;;;;;;5007467;28;20393;-55
2021/12/26 02:03:54;;;;;;;31.07;14.60;;;4.90;99.90;;;;;;5003193;28;20871;-55
2021/12/26 02:06:21;;;;;;;30.45;15.35;;;4.90;99.90;;;;;;4989043;28;20385;-55
2021/12/26 02:08:52;;;;;;;28.77;14.23;;;4.90;99.90;;;;;;4990012;28;20876;-55
2021/12/26 02:11:18;;;;;;;29.73;14.20;;;5.20;99.90;;;;;;4996756;28;20886;-55
2021/12/26 02:13:44;;;;;;;30.80;15.10;;;4.70;99.90;;;;;;5000626;28;20424;-55
2021/12/26 02:16:11;;;;;;;28.92;14.43;;;4.80;99.90;;;;;;4989884;28;20393;-55
2021/12/26 02:18:37;;;;;;;25.08;13.10;;;4.80;99.90;;;;;;4987558;28;20397;-55
2021/12/26 02:21:41;;;;;;;26.08;13.98;;;4.80;99.90;;;;;;4989410;28;20893;-55
2021/12/26 02:29:25;;;;;;;31.35;14.25;;;4.90;99.90;;;;;;4988603;28;20462;-55
2021/12/26 02:31:52;;;;;;;24.85;13.23;;;5.00;99.90;;;;;;4989571;28;20425;-55
2021/12/26 02:34:18;;;;;;;25.45;12.90;;;6.10;99.90;;;;;;4989053;28;20414;-55
2021/12/26 02:36:43;;;;;;;29.93;14.07;;;4.90;99.90;;;;;;4989458;28;20398;-55
2021/12/26 02:39:09;;;;;;;28.90;14.27;;;5.00;99.90;;;;;;4988064;28;20395;-55
2021/12/26 02:41:35;;;;;;;31.50;14.30;;;5.00;99.90;;;;;;4988968;28;20517;-55
2021/12/26 02:44:01;;;;;;;27.80;14.80;;;5.00;99.90;;;;;;5000110;28;20503;-55
2021/12/26 02:46:28;;;;;;;33.30;14.47;;;5.00;99.90;;;;;;5003677;28;20467;-55
2021/12/26 02:48:54;;;;;;;29.88;15.88;;;5.70;99.90;;;;;;5009787;28;20459;-55
2021/12/26 02:51:19;;;;;;;37.28;15.80;;;4.90;99.90;;;;;;5012181;28;20842;-55
2021/12/26 02:53:49;;;;;;;33.88;15.52;;;4.90;99.90;;;;;;5012750;28;20444;-55
2021/12/26 02:56:16;;;;;;;33.00;15.65;;;4.80;99.90;;;;;;5011070;28;20397;-55
2021/12/26 02:58:42;;;;;;;34.90;15.50;;;4.80;99.90;;;;;;5011800;28;20435;-55
2021/12/26 03:01:20;;;;;;;32.72;15.45;;;4.80;99.90;;;;;;5011433;28;20484;-55
2021/12/26 03:03:46;;;;;;;32.60;16.02;;;4.70;99.90;;;;;;5012471;28;20395;-55
2021/12/26 03:06:27;;;;;;;33.45;15.98;;;4.70;99.90;;;;;;5012524;28;20604;-55
2021/12/26 03:08:54;;;;;;;38.22;17.35;;;4.80;99.90;;;;;;5012501;28;20393;-55
2021/12/26 03:11:20;;;;;;;37.45;16.30;;;4.70;99.90;;;;;;5011738;28;20381;-55
2021/12/26 03:13:47;;;;;;;34.13;15.93;;;4.70;99.90;;;;;;5011922;28;20419;-55
2021/12/26 03:16:13;;;;;;;37.30;16.40;;;4.80;99.90;;;;;;5012319;28;20391;-55
2021/12/26 03:18:38;;;;;;;34.10;15.33;;;4.70;99.90;;;;;;5011465;28;20384;-55
2021/12/26 03:21:04;;;;;;;31.05;15.40;;;4.80;99.90;;;;;;5011904;28;20444;-55
2021/12/26 03:23:30;;;;;;;35.63;16.45;;;4.80;99.90;;;;;;5010174;28;20909;-55
2021/12/26 03:25:58;;;;;;;40.20;16.92;;;4.90;99.90;;;;;;5010774;28;20695;-55
2021/12/26 03:28:26;;;;;;;36.75;16.25;;;4.90;99.90;;;;;;5010487;28;20416;-55
2021/12/26 03:30:52;;;;;;;35.13;15.80;;;4.80;99.90;;;;;;5012396;28;20385;-55
2021/12/26 03:33:19;;;;;;;35.80;16.30;;;4.80;99.90;;;;;;5010428;28;20730;-56
2021/12/26 03:35:45;;;;;;;32.28;14.68;;;4.90;99.90;;;;;;5011990;28;20877;-55
2021/12/26 03:38:13;;;;;;;33.00;14.70;;;4.90;99.90;;;;;;5012026;28;20408;-55
2021/12/26 03:40:39;;;;;;;30.30;14.43;;;5.00;99.90;;;;;;5011355;28;20403;-55
2021/12/26 03:43:08;;;;;;;33.38;14.88;;;5.10;99.90;;;;;;5012176;28;20738;-55
2021/12/26 03:45:35;;;;;;;35.13;15.13;;;5.10;99.90;;;;;;5010753;28;20664;-55
2021/12/26 03:48:01;;;;;;;29.98;14.68;;;5.10;99.90;;;;;;5011645;28;20916;-54
2021/12/26 03:50:28;;;;;;;36.13;16.40;;;5.10;99.90;;;;;;5010902;28;20397;-55
2021/12/26 03:52:58;;;;;;;33.55;16.10;;;5.10;99.90;;;;;;5011624;28;20399;-55
2021/12/26 03:55:27;;;;;;;44.83;17.58;;;4.90;99.90;;;;;;5010822;28;20453;-55
2021/12/26 03:57:54;;;;;;;59.00;18.15;;;4.90;99.90;;;;;;5011445;28;20397;-56
2021/12/26 04:00:21;;;;;;;45.60;18.70;;;4.80;99.90;;;;;;5011172;28;20475;-55
2021/12/26 04:02:47;;;;;;;38.88;17.08;;;4.70;99.90;;;;;;5011198;28;20839;-55
2021/12/26 04:05:14;;;;;;;38.35;17.60;;;4.70;99.90;;;;;;5007554;28;20432;-55
2021/12/26 04:07:41;;;;;;;42.65;16.73;;;6.30;99.90;;;;;;5000337;28;20410;-55
2021/12/26 04:10:08;;;;;;;40.20;16.93;;;4.70;99.90;;;;;;4998252;28;20397;-55
2021/12/26 04:12:38;;;;;;;41.92;16.35;;;4.80;99.90;;;;;;4999218;28;20856;-55
2021/12/26 04:15:06;;;;;;;46.40;16.30;;;4.80;99.90;;;;;;4999134;28;20870;-55
2021/12/26 04:17:32;;;;;;;40.35;15.90;;;3.50;99.90;;;;;;5010606;28;20839;-55
2021/12/26 04:19:57;;;;;;;63.60;19.15;;;4.70;99.90;;;;;;5011137;28;20435;-55
2021/12/26 04:22:23;;;;;;;51.83;15.73;;;4.70;99.90;;;;;;5010289;28;20396;-55
2021/12/26 04:24:49;;;;;;;43.30;15.40;;;4.80;99.90;;;;;;5010486;28;20421;-55
2021/12/26 04:27:14;;;;;;;58.60;18.58;;;4.90;99.90;;;;;;5011128;28;20378;-55
2021/12/26 04:29:40;;;;;;;39.60;15.77;;;5.00;99.90;;;;;;5009952;28;21301;-55
2021/12/26 04:32:06;;;;;;;40.90;16.77;;;4.90;99.90;;;;;;5010528;28;20377;-55
2021/12/26 04:34:32;;;;;;;33.28;14.48;;;4.90;99.90;;;;;;5003271;28;20427;-56
2021/12/26 04:36:57;;;;;;;57.20;18.07;;;4.90;99.90;;;;;;4999191;28;20386;-55
2021/12/26 04:39:23;;;;;;;45.30;16.57;;;4.90;99.90;;;;;;4999847;28;20389;-55
2021/12/26 04:41:49;;;;;;;50.75;16.95;;;5.00;99.90;;;;;;4991240;28;20845;-55
2021/12/26 04:44:14;;;;;;;35.93;14.93;;;4.90;99.90;;;;;;4991142;28;20528;-55
2021/12/26 04:46:40;;;;;;;53.25;17.42;;;4.90;99.90;;;;;;4990389;28;20512;-55
2021/12/26 04:49:06;;;;;;;44.70;17.20;;;5.90;99.90;;;;;;4991228;28;20395;-55
2021/12/26 04:51:32;;;;;;;36.30;16.00;;;5.10;99.90;;;;;;4989984;28;20737;-55
2021/12/26 04:53:57;;;;;;;35.17;15.70;;;5.00;99.90;;;;;;4995555;28;20426;-55
2021/12/26 04:56:23;;;;;;;68.15;18.40;;;5.00;99.90;;;;;;5008686;28;20396;-55
2021/12/26 04:58:49;;;;;;;45.03;15.73;;;4.90;99.90;;;;;;4995163;28;20441;-55
2021/12/26 05:01:15;;;;;;;83.50;19.05;;;4.90;99.90;;;;;;4990824;28;20450;-55
2021/12/26 05:03:41;;;;;;;35.00;14.13;;;6.00;99.90;;;;;;5005154;28;20409;-55
2021/12/26 05:06:07;;;;;;;31.48;14.68;;;5.00;99.90;;;;;;4990718;28;20390;-55
2021/12/26 05:08:33;;;;;;;32.03;14.57;;;5.00;99.90;;;;;;4989886;28;20870;-55
2021/12/26 05:10:58;;;;;;;34.73;15.50;;;5.00;99.90;;;;;;4990759;28;20472;-56
2021/12/26 05:13:24;;;;;;;31.90;13.97;;;5.00;99.90;;;;;;4988024;28;20449;-55
2021/12/26 05:15:50;;;;;;;35.10;14.15;;;5.10;99.90;;;;;;4990717;28;20397;-56
2021/12/26 05:18:16;;;;;;;34.15;14.23;;;6.80;99.90;;;;;;4990570;28;20482;-55
2021/12/26 05:20:42;;;;;;;42.05;14.90;;;5.10;99.90;;;;;;4989749;28;20370;-56
2021/12/26 05:23:07;;;;;;;59.43;18.37;;;5.10;99.90;;;;;;4990466;28;20406;-56
2021/12/26 05:25:33;;;;;;;59.13;17.65;;;5.00;99.90;;;;;;4998455;28;20388;-55
2021/12/26 05:27:59;;;;;;;68.67;19.20;;;5.00;99.90;;;;;;5009964;28;20420;-55
2021/12/26 05:30:26;;;;;;;48.43;17.90;;;4.90;99.90;;;;;;5008852;28;20412;-55
2021/12/26 05:32:57;;;;;;;131.50;23.80;;;4.90;99.90;;;;;;5009848;28;20470;-55
2021/12/26 05:35:24;;;;;;;66.68;17.02;;;4.90;99.90;;;;;;5008626;28;20763;-55
2021/12/26 05:37:49;;;;;;;91.85;22.27;;;4.80;99.90;;;;;;5009798;28;20862;-55
2021/12/26 05:40:15;;;;;;;170.40;28.15;;;4.70;99.90;;;;;;5009865;28;20539;-55
2021/12/26 05:42:42;;;;;;;84.65;19.13;;;4.60;99.90;;;;;;5009064;28;20463;-55
2021/12/26 05:45:09;;;;;;;136.25;24.10;;;4.60;99.90;;;;;;5009476;28;20393;-55
2021/12/26 05:47:35;;;;;;;95.70;23.02;;;4.60;99.90;;;;;;5008918;28;20420;-55
2021/12/26 05:50:03;;;;;;;89.80;21.85;;;4.60;99.90;;;;;;5009562;28;20482;-55
2021/12/26 05:52:28;;;;;;;100.00;22.92;;;4.50;99.90;;;;;;5004494;28;20430;-55
2021/12/26 05:54:54;;;;;;;107.53;24.03;;;4.40;99.90;;;;;;5002777;28;20884;-55
2021/12/26 05:57:20;;;;;;;224.70;33.70;;;4.50;99.90;;;;;;4999047;28;20471;-55
2021/12/26 05:59:46;;;;;;;93.72;22.67;;;4.40;99.90;;;;;;4997685;28;20533;-55
2021/12/26 06:02:11;;;;;;;112.65;23.42;;;4.50;99.90;;;;;;4990115;28;20717;-54
2021/12/26 06:04:38;;;;;;;100.70;22.50;;;4.50;99.90;;;;;;4989270;28;20394;-55
2021/12/26 06:07:04;;;;;;;91.63;19.05;;;4.60;99.90;;;;;;4989885;28;20393;-55
2021/12/26 06:09:30;;;;;;;108.63;21.13;;;4.60;99.90;;;;;;4989308;28;20473;-55
2021/12/26 06:11:56;;;;;;;61.25;18.75;;;4.70;99.90;;;;;;4990356;28;20942;-55
2021/12/26 06:14:21;;;;;;;88.83;19.53;;;4.70;99.90;;;;;;4989462;28;20414;-55
2021/12/26 06:16:47;;;;;;;72.30;18.33;;;4.70;99.90;;;;;;4989321;28;20391;-55
2021/12/26 06:19:13;;;;;;;54.17;17.10;;;5.80;99.90;;;;;;4989783;28;20795;-55
2021/12/26 06:21:38;;;;;;;46.90;15.43;;;4.70;99.90;;;;;;4989380;28;20382;-55
2021/12/26 06:24:04;;;;;;;70.15;18.63;;;4.70;99.90;;;;;;4994416;28;20410;-55
2021/12/26 06:26:32;;;;;;;50.88;16.20;;;4.70;99.90;;;;;;5002068;28;20382;-55
2021/12/26 06:28:57;;;;;;;34.25;13.93;;;4.70;99.90;;;;;;5004317;28;20413;-55
2021/12/26 06:31:23;;;;;;;36.55;14.75;;;5.60;99.90;;;;;;5005937;28;20757;-57
2021/12/26 06:33:49;;;;;;;41.23;15.70;;;4.70;99.90;;;;;;5002442;28;20531;-57
2021/12/26 06:36:15;;;;;;;44.38;15.10;;;4.70;99.90;;;;;;5006535;28;20393;-55
2021/12/26 06:38:42;;;;;;;31.52;14.85;;;4.60;99.90;;;;;;4992641;28;20634;-55
2021/12/26 06:41:09;;;;;;;41.67;15.18;;;4.60;99.90;;;;;;4993360;28;20706;-55
2021/12/26 06:43:37;;;;;;;36.83;14.70;;;4.70;99.90;;;;;;4992895;28;20386;-55
2021/12/26 06:46:03;;;;;;;33.60;13.85;;;4.70;99.90;;;;;;4993547;28;20404;-55
2021/12/26 06:48:29;;;;;;;37.65;15.85;;;4.80;99.90;;;;;;4992479;28;20464;-55
2021/12/26 06:50:55;;;;;;;42.10;16.77;;;4.90;99.90;;;;;;4993460;28;20470;-55
2021/12/26 06:53:21;;;;;;;40.28;16.20;;;4.90;99.90;;;;;;5002256;28;20439;-55
2021/12/26 06:55:47;;;;;;;49.95;16.88;;;5.00;99.90;;;;;;5010955;28;20770;-55
2021/12/26 06:58:14;;;;;;;49.20;15.83;;;5.20;99.90;;;;;;5012890;28;20467;-55
2021/12/26 07:00:40;;;;;;;41.13;16.10;;;5.00;99.90;;;;;;5011941;28;20893;-55
2021/12/26 07:03:06;;;;;;;39.25;15.45;;;4.90;99.90;;;;;;5012794;28;20924;-55
2021/12/26 07:05:32;;;;;;;37.08;15.30;;;5.00;99.90;;;;;;5016949;28;20407;-55
2021/12/26 07:07:58;;;;;;;37.50;15.07;;;4.90;99.90;;;;;;5019363;28;20401;-55
2021/12/26 07:10:24;;;;;;;32.95;14.05;;;5.00;99.90;;;;;;5021269;28;20396;-55
2021/12/26 07:12:49;;;;;;;32.95;13.90;;;6.70;99.90;;;;;;5013225;28;20481;-55
2021/12/26 07:15:16;;;;;;;36.03;14.70;;;5.10;99.90;;;;;;5011734;28;20413;-55
2021/12/26 07:17:42;;;;;;;42.85;15.60;;;5.20;99.90;;;;;;5010636;28;20424;-53
2021/12/26 07:20:10;;;;;;;56.67;17.55;;;5.30;99.90;;;;;;5009449;28;20408;-54
2021/12/26 07:22:36;;;;;;;48.55;16.58;;;5.20;99.90;;;;;;5013770;28;20396;-55
2021/12/26 07:25:04;;;;;;;40.35;15.25;;;5.20;99.90;;;;;;5007252;28;20497;-55
2021/12/26 07:27:29;;;;;;;59.43;17.80;;;5.30;99.90;;;;;;5004327;28;20866;-55
2021/12/26 07:29:58;;;;;;;77.57;19.23;;;5.30;99.90;;;;;;5010961;28;20491;-55
2021/12/26 07:32:24;;;;;;;62.42;19.02;;;5.20;99.90;;;;;;5010041;28;20412;-55
2021/12/26 07:34:50;;;;;;;54.65;17.48;;;5.20;99.90;;;;;;5011282;28;20448;-55
2021/12/26 07:37:16;;;;;;;159.93;22.83;;;5.20;99.90;;;;;;5011921;28;20467;-55
2021/12/26 07:39:42;;;;;;;60.23;17.37;;;5.20;99.90;;;;;;5019041;28;20383;-55
2021/12/26 07:42:07;;;;;;;56.80;18.80;;;5.20;99.90;;;;;;5012539;28;20404;-55
2021/12/26 07:44:33;;;;;;;92.72;23.15;;;5.20;99.90;;;;;;5009863;28;20419;-55
2021/12/26 07:46:59;;;;;;;127.43;27.70;;;5.20;99.90;;;;;;5005626;28;20493;-55
2021/12/26 07:49:24;;;;;;;52.10;17.13;;;5.10;99.90;;;;;;5004577;28;20734;-55
2021/12/26 07:51:51;;;;;;;92.70;21.58;;;5.20;99.90;;;;;;5008548;28;20478;-53
2021/12/26 07:54:17;;;;;;;65.70;18.83;;;5.30;99.90;;;;;;5003660;28;20417;-53
2021/12/26 07:56:43;;;;;;;146.95;24.15;;;5.20;99.90;;;;;;5005733;28;20392;-55
2021/12/26 07:59:09;;;;;;;64.32;18.35;;;6.10;99.90;;;;;;5011395;28;20470;-54
2021/12/26 08:01:35;;;;;;;71.47;18.60;;;5.20;99.90;;;;;;5009995;28;20480;-53
2021/12/26 08:04:02;;;;;;;65.90;20.00;;;5.10;99.90;;;;;;5010745;28;20384;-53
2021/12/26 08:06:30;;;;;;;51.42;16.13;;;5.10;99.90;;;;;;5009807;28;20428;-53
2021/12/26 08:08:55;;;;;;;42.50;15.95;;;5.20;99.90;;;;;;5010789;28;20880;-54
2021/12/26 08:11:22;;;;;;;41.33;16.77;;;5.40;99.90;;;;;;5010968;28;20400;-53
2021/12/26 08:13:47;;;;;;;50.08;16.80;;;5.30;99.90;;;;;;5006668;28;20889;-53
2021/12/26 08:16:14;;;;;;;56.63;17.10;;;5.30;99.90;;;;;;5010219;28;20443;-53
2021/12/26 08:18:40;;;;;;;50.53;17.40;;;5.20;99.90;;;;;;5009924;28;20435;-54
2021/12/26 08:21:06;;;;;;;47.50;17.98;;;5.20;99.90;;;;;;5010860;28;20385;-54
2021/12/26 08:23:31;;;;;;;71.38;19.80;;;5.30;99.90;;;;;;5009975;28;20777;-54
2021/12/26 08:25:57;;;;;;;68.70;19.93;;;5.50;99.90;;;;;;5010378;28;20395;-54
2021/12/26 08:28:23;;;;;;;68.50;19.50;;;5.60;99.90;;;;;;5010016;28;20420;-53
2021/12/26 08:30:49;;;;;;;83.03;21.25;;;5.60;99.90;;;;;;5010012;28;20388;-53
2021/12/26 08:33:15;;;;;;;76.70;20.50;;;5.60;99.90;;;;;;5010613;28;20397;-53
2021/12/26 08:35:42;;;;;;;47.97;18.30;;;5.70;99.90;;;;;;5009591;28;20719;-53
2021/12/26 08:38:09;;;;;;;46.83;18.33;;;5.70;99.90;;;;;;5009958;28;20397;-53
2021/12/26 08:40:35;;;;;;;46.78;17.65;;;5.80;99.90;;;;;;5009930;28;20381;-53
2021/12/26 08:43:00;;;;;;;53.15;17.77;;;5.90;99.90;;;;;;5009889;28;20389;-53
2021/12/26 08:45:26;;;;;;;55.00;18.52;;;5.90;99.90;;;;;;5009268;28;20392;-54
2021/12/26 08:47:55;;;;;;;48.55;17.73;;;5.90;99.90;;;;;;5009514;28;20385;-53
2021/12/26 08:50:21;;;;;;;44.25;18.65;;;6.00;99.90;;;;;;4991006;28;20397;-53
2021/12/26 08:52:47;;;;;;;41.30;17.00;;;6.10;99.90;;;;;;4990265;28;20402;-54
2021/12/26 08:55:13;;;;;;;52.20;17.33;;;6.10;99.90;;;;;;4991094;28;20418;-53
2021/12/26 08:57:39;;;;;;;39.65;17.33;;;6.10;99.90;;;;;;4989553;28;20395;-54
2021/12/26 09:00:08;;;;;;;51.78;17.88;;;6.10;99.90;;;;;;4990494;28;20422;-53
2021/12/26 09:02:34;;;;;;;41.35;18.00;;;6.30;99.90;;;;;;4991877;28;20814;-53
2021/12/26 09:04:59;;;;;;;45.60;20.27;;;6.40;99.90;;;;;;5009732;28;20388;-54
2021/12/26 09:07:25;;;;;;;44.80;18.33;;;6.40;99.90;;;;;;5004429;28;20422;-53
2021/12/26 09:09:51;;;;;;;38.57;20.20;;;6.60;99.90;;;;;;5008882;28;20560;-53
2021/12/26 09:12:17;;;;;;;43.17;20.40;;;6.70;99.90;;;;;;5009634;28;20739;-54
2021/12/26 09:14:42;;;;;;;49.22;25.52;;;6.80;99.90;;;;;;5011152;28;20690;-54
2021/12/26 09:17:08;;;;;;;37.47;19.03;;;6.80;99.90;;;;;;5009754;28;20447;-54
2021/12/26 09:19:34;;;;;;;32.45;15.75;;;6.90;99.90;;;;;;5006087;28;20389;-54
2021/12/26 09:22:03;;;;;;;33.65;15.88;;;6.90;99.90;;;;;;5009920;28;20389;-53
2021/12/26 09:24:29;;;;;;;30.60;14.50;;;6.70;99.90;;;;;;5008725;28;20432;-54
2021/12/26 09:26:55;;;;;;;30.27;15.70;;;6.80;99.90;;;;;;5007810;28;20400;-54
2021/12/26 09:29:21;;;;;;;31.92;15.52;;;6.80;99.90;;;;;;5009004;28;20411;-53
2021/12/26 09:31:47;;;;;;;35.60;15.75;;;6.90;99.90;;;;;;5009121;28;20405;-54
2021/12/26 09:34:14;;;;;;;31.07;15.07;;;6.90;99.90;;;;;;5009450;28;20423;-54
2021/12/26 09:36:40;;;;;;;28.75;14.55;;;7.00;99.90;;;;;;5008622;28;20476;-54
2021/12/26 09:39:06;;;;;;;30.75;14.25;;;7.00;99.90;;;;;;5009345;28;20913;-53
2021/12/26 09:41:31;;;;;;;29.23;14.25;;;7.10;99.90;;;;;;5008941;28;20384;-53
2021/12/26 09:43:59;;;;;;;30.80;15.47;;;7.10;99.90;;;;;;5008704;28;20458;-53
2021/12/26 09:46:31;;;;;;;29.65;14.32;;;7.20;99.90;;;;;;5007890;28;20459;-54
2021/12/26 09:48:57;;;;;;;24.90;13.37;;;7.20;99.90;;;;;;5008214;28;20393;-54
2021/12/26 09:51:23;;;;;;;35.15;14.68;;;7.10;99.90;;;;;;5009798;28;20381;-53
2021/12/26 09:53:49;;;;;;;26.67;14.03;;;7.20;99.90;;;;;;5009005;28;20500;-54
2021/12/26 09:56:15;;;;;;;23.77;12.13;;;7.20;99.90;;;;;;5009113;28;20543;-53
2021/12/26 09:59:01;;;;;;;28.27;13.82;;;7.20;99.90;;;;;;5003850;28;20407;-54
2021/12/26 10:01:38;;;;;;;27.23;13.38;;;7.30;99.90;;;;;;5007121;28;20483;-54
2021/12/26 10:04:28;;;;;;;24.33;13.77;;;7.50;99.90;;;;;;5005118;28;20411;-53
2021/12/26 10:07:09;;;;;;;25.85;12.45;;;7.60;99.90;;;;;;5008461;28;20472;-54
2021/12/26 10:09:39;;;;;;;26.67;14.00;;;7.80;99.90;;;;;;5008548;28;20424;-54
2021/12/26 10:12:07;;;;;;;22.50;11.90;;;8.00;99.90;;;;;;5009081;28;20381;-53
2021/12/26 10:14:35;;;;;;;23.77;12.30;;;8.20;99.90;;;;;;5008547;28;20416;-53
2021/12/26 10:17:08;;;;;;;22.53;11.97;;;8.40;99.90;;;;;;5008897;28;20408;-54
2021/12/26 10:19:44;;;;;;;23.20;11.60;;;8.40;99.90;;;;;;5006340;28;21194;-53
2021/12/26 10:22:12;;;;;;;24.23;11.60;;;8.40;99.90;;;;;;5003908;28;20898;-53
2021/12/26 10:24:43;;;;;;;22.52;11.52;;;8.40;99.90;;;;;;5007940;28;20388;-53
2021/12/26 10:27:14;;;;;;;24.42;12.32;;;8.40;99.90;;;;;;5007642;28;20400;-53
2021/12/26 10:29:45;;;;;;;24.10;11.90;;;8.40;99.90;;;;;;5007774;28;20487;-53
2021/12/26 10:32:22;;;;;;;21.40;10.97;;;7.50;99.90;;;;;;5005207;28;20933;-54
2021/12/26 10:34:56;;;;;;;21.73;11.57;;;8.40;99.90;;;;;;5001533;28;20532;-54
2021/12/26 10:37:28;;;;;;;21.55;11.10;;;8.20;99.90;;;;;;5004228;28;20384;-53
2021/12/26 10:39:59;;;;;;;22.50;12.10;;;8.10;99.90;;;;;;5004175;28;20770;-53
2021/12/26 10:42:30;;;;;;;22.95;11.60;;;8.10;99.90;;;;;;5007254;28;20400;-54
2021/12/26 10:44:59;;;;;;;23.58;11.98;;;8.10;99.90;;;;;;5008555;28;20405;-53
2021/12/26 10:47:30;;;;;;;21.00;11.00;;;8.10;99.90;;;;;;5007794;28;20455;-53
2021/12/26 10:50:09;;;;;;;22.37;12.20;;;8.00;99.90;;;;;;5008371;28;20849;-54
2021/12/26 10:52:41;;;;;;;22.48;12.50;;;8.10;99.90;;;;;;5004809;28;20876;-54
2021/12/26 10:55:13;;;;;;;21.40;11.77;;;8.00;99.90;;;;;;5000952;28;20841;-54
2021/12/26 10:57:45;;;;;;;23.50;11.85;;;8.00;99.90;;;;;;5004427;28;20416;-54
2021/12/26 11:00:16;;;;;;;21.30;12.20;;;7.90;99.90;;;;;;5004329;28;20419;-54
2021/12/26 11:02:46;;;;;;;22.52;12.18;;;7.90;99.90;;;;;;5004248;28;20470;-53
2021/12/26 11:05:34;;;;;;;31.70;13.18;;;7.90;99.90;;;;;;5006684;28;20960;-54
2021/12/26 11:08:03;;;;;;;22.33;11.82;;;7.80;99.90;;;;;;5002494;28;20401;-54
2021/12/26 11:10:39;;;;;;;24.00;12.93;;;7.90;99.90;;;;;;5001789;28;20862;-54
2021/12/26 11:13:07;;;;;;;25.35;13.63;;;7.80;99.90;;;;;;5001843;28;20421;-53
2021/12/26 11:15:38;;;;;;;25.17;13.57;;;7.90;99.90;;;;;;5009537;28;20782;-54
2021/12/26 11:18:10;;;;;;;26.38;13.40;;;7.80;99.90;;;;;;5005619;28;20418;-54
2021/12/26 11:20:48;;;;;;;25.50;14.35;;;7.90;99.90;;;;;;4998276;28;20404;-53
2021/12/26 11:23:23;;;;;;;30.47;15.80;;;8.10;99.90;;;;;;5005433;28;20397;-53
2021/12/26 11:25:58;;;;;;;30.37;15.90;;;8.30;99.90;;;;;;5008548;28;20488;-53
2021/12/26 11:28:30;;;;;;;25.98;13.73;;;8.30;99.90;;;;;;5010794;28;20495;-52
2021/12/26 11:31:00;;;;;;;28.05;14.25;;;8.40;99.90;;;;;;5007321;28;20408;-55
2021/12/26 11:33:27;;;;;;;28.90;15.45;;;8.50;99.90;;;;;;5011173;28;20468;-55
2021/12/26 11:35:54;;;;;;;26.70;14.60;;;8.50;99.90;;;;;;5006062;28;20925;-55
2021/12/26 11:38:22;;;;;;;26.92;14.82;;;8.70;99.90;;;;;;5007446;28;20403;-55
2021/12/26 11:40:55;;;;;;;25.67;13.77;;;8.80;99.90;;;;;;5007432;28;20393;-55
2021/12/26 11:43:39;;;;;;;26.98;13.98;;;8.90;99.90;;;;;;5009794;28;20380;-55
2021/12/26 11:46:17;;;;;;;27.38;13.90;;;9.20;99.90;;;;;;5007856;28;20408;-56
2021/12/26 11:49:08;;;;;;;25.30;13.10;;;9.20;99.90;;;;;;5008300;28;20944;-55
2021/12/26 11:51:44;;;;;;;22.02;12.45;;;9.20;99.90;;;;;;5006139;28;20401;-55
2021/12/26 11:54:32;;;;;;;25.35;13.95;;;9.00;99.90;;;;;;5007416;28;20514;-55
2021/12/26 11:57:18;;;;;;;25.00;13.90;;;9.10;99.90;;;;;;5010933;28;20381;-55
2021/12/26 12:00:10;;;;;;;23.83;13.30;;;10.00;99.90;;;;;;4999260;28;20683;-54
2021/12/26 12:02:48;;;;;;;24.08;12.98;;;9.10;99.90;;;;;;5003796;28;20419;-54
2021/12/26 12:05:18;;;;;;;22.33;12.30;;;9.20;99.90;;;;;;5003775;28;20413;-55
2021/12/26 12:07:55;;;;;;;21.83;11.88;;;9.10;99.90;;;;;;5004519;28;21281;-54
2021/12/26 12:10:44;;;;;;;20.98;11.68;;;9.10;99.90;;;;;;5005926;28;20404;-54
2021/12/26 12:13:38;;;;;;;22.42;12.00;;;9.10;99.90;;;;;;5009376;28;20389;-54
2021/12/26 12:16:24;;;;;;;21.17;11.93;;;9.10;99.90;;;;;;5000730;28;20450;-54
2021/12/26 12:18:50;;;;;;;21.35;11.55;;;9.10;99.90;;;;;;5008279;28;20466;-54
2021/12/26 12:21:20;;;;;;;19.37;10.90;;;9.10;99.90;;;;;;5006668;28;20409;-54
2021/12/26 12:23:58;;;;;;;19.23;11.00;;;9.10;99.90;;;;;;5006646;28;20437;-54
2021/12/26 12:26:42;;;;;;;18.40;10.82;;;9.30;99.90;;;;;;5010531;28;20393;-55
2021/12/26 12:29:10;;;;;;;21.60;11.97;;;9.40;99.90;;;;;;5008164;28;20948;-56
2021/12/26 12:31:36;;;;;;;19.98;11.15;;;9.50;99.90;;;;;;5010033;28;20385;-55
2021/12/26 12:34:09;;;;;;;20.52;11.68;;;9.60;99.90;;;;;;5009442;28;20420;-54
2021/12/26 12:36:43;;;;;;;19.27;11.40;;;9.50;99.90;;;;;;5010098;28;20889;-55
2021/12/26 12:39:14;;;;;;;21.42;11.35;;;9.40;99.90;;;;;;5006258;28;20386;-54
2021/12/26 12:41:43;;;;;;;21.75;12.45;;;9.40;99.90;;;;;;5007517;28;20392;-54
2021/12/26 12:44:33;;;;;;;24.02;14.55;;;9.30;99.90;;;;;;5009351;28;20397;-54
2021/12/26 12:46:58;;;;;;;26.33;15.18;;;9.90;99.90;;;;;;4999188;28;20870;-54